Time;durP1;ratioP1;P1;durP2;ratioP2;P2;SDS_P1;SDS_P2;PMS_P1;PMS_P2;Temp;Humidity;BMP_temperature;BMP_pressure;BME280_temperature;BME280_humidity;BME280_pressure;Samples;Min_cycle;Max_cycle;Signal;HPM_P1;HPM_P2
2022/04/08 00:00:07;;;;;;;2.53;1.58;;;7.20;1.00;;;;;;4927529;28;20240;-75
2022/04/08 00:02:33;;;;;;;4.55;1.70;;;7.20;1.00;;;;;;4926946;28;20241;-76
2022/04/08 00:05:05;;;;;;;2.80;1.63;;;7.20;1.00;;;;;;4938557;28;20627;-76
2022/04/08 00:07:32;;;;;;;2.78;1.60;;;7.30;1.00;;;;;;4925090;28;20233;-74
2022/04/08 00:09:58;;;;;;;2.47;1.45;;;7.20;1.00;;;;;;4944543;28;20260;-75
2022/04/08 00:12:27;;;;;;;3.95;1.73;;;7.20;1.00;;;;;;4930449;28;20268;-76
2022/04/08 00:14:53;;;;;;;4.05;2.28;;;7.20;1.00;;;;;;4944690;28;20841;-76
2022/04/08 00:17:21;;;;;;;3.58;2.13;;;7.20;1.00;;;;;;4955975;28;20338;-75
2022/04/08 00:19:47;;;;;;;3.95;2.10;;;7.20;1.00;;;;;;4933640;28;20876;-76
2022/04/08 00:22:18;;;;;;;4.30;2.25;;;7.00;1.00;;;;;;4954257;28;20455;-75
2022/04/08 00:24:44;;;;;;;3.83;2.10;;;7.00;1.00;;;;;;4928424;28;20238;-76
2022/04/08 00:27:11;;;;;;;3.03;2.05;;;6.90;1.00;;;;;;4941122;28;20324;-76
2022/04/08 00:29:37;;;;;;;3.53;2.05;;;6.90;1.00;;;;;;4941189;28;21236;-75
2022/04/08 00:32:07;;;;;;;3.33;1.77;;;6.90;1.00;;;;;;4939470;28;20256;-75
2022/04/08 00:34:34;;;;;;;3.05;2.05;;;6.90;1.00;;;;;;4941484;28;20244;-76
2022/04/08 00:37:03;;;;;;;3.95;1.90;;;6.80;1.00;;;;;;4921230;28;20237;-75
2022/04/08 00:39:33;;;;;;;4.25;2.08;;;6.80;1.00;;;;;;4934729;28;20291;-76
2022/04/08 00:42:00;;;;;;;4.10;2.25;;;6.80;1.00;;;;;;4941628;28;20245;-76
2022/04/08 00:44:29;;;;;;;3.95;2.00;;;6.80;1.00;;;;;;4946012;28;20257;-76
2022/04/08 00:46:55;;;;;;;5.10;2.33;;;6.80;1.00;;;;;;4924898;28;20237;-76
2022/04/08 00:49:27;;;;;;;3.40;2.20;;;6.70;1.00;;;;;;4944342;28;20232;-76
2022/04/08 00:51:54;;;;;;;3.72;2.50;;;6.70;1.00;;;;;;4939055;28;20236;-76
2022/04/08 00:54:26;;;;;;;3.75;2.35;;;6.70;1.00;;;;;;4936739;28;20332;-76
2022/04/08 00:56:54;;;;;;;2.58;2.00;;;6.70;1.00;;;;;;4923095;28;20280;-76
2022/04/08 00:59:26;;;;;;;5.28;2.00;;;6.70;1.00;;;;;;4930938;28;21108;-77
2022/04/08 01:01:52;;;;;;;4.45;2.30;;;6.60;1.00;;;;;;4918470;28;20384;-77
2022/04/08 01:04:21;;;;;;;3.38;2.38;;;6.70;1.00;;;;;;4942843;28;21151;-76
2022/04/08 01:06:52;;;;;;;3.88;1.80;;;6.80;1.00;;;;;;4938535;28;20236;-76
2022/04/08 01:09:18;;;;;;;3.53;1.60;;;6.70;1.00;;;;;;4941581;28;21117;-76
2022/04/08 01:11:47;;;;;;;2.70;1.58;;;6.80;1.00;;;;;;4934012;28;20273;-75
2022/04/08 01:14:16;;;;;;;2.95;1.77;;;6.80;1.00;;;;;;4944738;28;20320;-76
2022/04/08 01:16:46;;;;;;;4.07;1.45;;;6.70;1.00;;;;;;4922192;28;20220;-76
2022/04/08 01:19:13;;;;;;;5.15;1.60;;;6.80;1.00;;;;;;4925154;28;20384;-76
2022/04/08 01:21:40;;;;;;;2.45;1.27;;;6.70;1.00;;;;;;4928528;28;20241;-76
2022/04/08 01:24:11;;;;;;;3.78;1.52;;;6.70;1.00;;;;;;4920947;28;20288;-76
2022/04/08 01:26:40;;;;;;;2.10;1.30;;;6.70;1.00;;;;;;4924188;28;20276;-76
2022/04/08 01:29:07;;;;;;;2.33;1.20;;;6.70;1.00;;;;;;4923631;28;20232;-75
2022/04/08 01:31:34;;;;;;;3.67;1.48;;;6.70;1.00;;;;;;4933521;28;20763;-76
2022/04/08 01:34:05;;;;;;;2.60;1.10;;;6.70;1.00;;;;;;4933054;28;20283;-74
2022/04/08 01:36:32;;;;;;;4.63;1.65;;;6.70;1.00;;;;;;4923602;28;20240;-75
2022/04/08 01:38:58;;;;;;;3.83;1.30;;;6.70;1.00;;;;;;4939569;28;20287;-76
2022/04/08 01:41:28;;;;;;;5.40;1.60;;;6.80;1.00;;;;;;4926660;28;20317;-74
2022/04/08 01:43:56;;;;;;;3.75;1.40;;;6.80;1.00;;;;;;4936959;28;20989;-75
2022/04/08 01:46:27;;;;;;;2.33;1.05;;;6.80;1.00;;;;;;4928610;28;20243;-75
2022/04/08 01:48:54;;;;;;;3.30;1.35;;;6.90;1.00;;;;;;4924606;28;20268;-76
2022/04/08 01:51:26;;;;;;;1.92;1.05;;;6.90;1.00;;;;;;4925732;28;20663;-76
2022/04/08 01:53:53;;;;;;;5.43;1.15;;;6.90;1.00;;;;;;4926765;28;20289;-75
2022/04/08 01:56:20;;;;;;;2.13;1.17;;;6.80;1.00;;;;;;4932217;28;20260;-76
2022/04/08 01:58:48;;;;;;;3.38;1.20;;;6.80;1.00;;;;;;4926518;28;20259;-76
2022/04/08 02:01:16;;;;;;;5.55;1.33;;;6.90;1.00;;;;;;4918274;28;20344;-76
2022/04/08 02:03:47;;;;;;;1.60;1.10;;;6.90;1.00;;;;;;4913377;28;20234;-78
2022/04/08 02:06:14;;;;;;;3.67;1.08;;;6.90;1.00;;;;;;4932789;28;20715;-75
2022/04/08 02:08:40;;;;;;;3.55;1.38;;;6.90;1.00;;;;;;4935752;28;20240;-76
2022/04/08 02:11:07;;;;;;;2.80;1.40;;;6.90;1.00;;;;;;4914806;28;20963;-75
2022/04/08 02:13:36;;;;;;;2.15;1.05;;;6.90;1.00;;;;;;4944156;28;20241;-76
2022/04/08 02:16:04;;;;;;;2.10;1.20;;;6.90;1.00;;;;;;4929036;28;20260;-76
2022/04/08 02:18:32;;;;;;;2.15;1.20;;;7.00;1.00;;;;;;4916109;28;20252;-76
2022/04/08 02:20:58;;;;;;;2.10;1.30;;;7.00;1.00;;;;;;4941333;28;20399;-74
2022/04/08 02:23:27;;;;;;;5.20;1.55;;;7.00;1.00;;;;;;4937335;28;21382;-76
2022/04/08 02:25:54;;;;;;;2.50;1.30;;;7.00;1.00;;;;;;4930391;28;20244;-77
2022/04/08 02:28:20;;;;;;;4.03;1.40;;;7.00;1.00;;;;;;4946689;28;20252;-76
2022/04/08 02:30:47;;;;;;;4.00;1.55;;;7.00;1.00;;;;;;4922195;28;20419;-77
2022/04/08 02:33:14;;;;;;;3.42;1.13;;;7.00;1.00;;;;;;4933447;28;20272;-77
2022/04/08 02:35:47;;;;;;;4.55;1.40;;;7.10;1.00;;;;;;4919055;28;20425;-76
2022/04/08 02:38:14;;;;;;;4.00;1.42;;;7.10;1.00;;;;;;4951589;28;20268;-76
2022/04/08 02:40:40;;;;;;;2.60;1.17;;;7.10;1.00;;;;;;4937080;28;20280;-76
2022/04/08 02:43:08;;;;;;;4.55;1.15;;;7.10;1.00;;;;;;4936535;28;20245;-76
2022/04/08 02:45:36;;;;;;;2.40;1.27;;;7.10;1.00;;;;;;4936726;28;20253;-76
2022/04/08 02:48:07;;;;;;;2.60;1.20;;;7.10;1.00;;;;;;4918619;28;20228;-74
2022/04/08 02:50:34;;;;;;;2.22;1.10;;;7.20;1.00;;;;;;4929994;28;20796;-76
2022/04/08 02:53:06;;;;;;;3.03;1.48;;;7.20;1.00;;;;;;4930143;28;20245;-76
2022/04/08 02:55:37;;;;;;;3.35;1.80;;;7.30;1.00;;;;;;4942414;28;20241;-76
2022/04/08 02:58:07;;;;;;;2.25;1.10;;;7.40;1.00;;;;;;4938765;28;20422;-76
2022/04/08 03:00:34;;;;;;;4.10;1.20;;;7.50;1.00;;;;;;4926236;28;20327;-79
2022/04/08 03:03:00;;;;;;;2.65;0.95;;;7.50;1.00;;;;;;4930616;28;20550;-77
2022/04/08 03:05:27;;;;;;;4.53;1.20;;;7.60;1.00;;;;;;4946796;28;20309;-75
2022/04/08 03:07:54;;;;;;;2.58;1.02;;;7.60;1.00;;;;;;4936663;28;20245;-74
2022/04/08 03:10:26;;;;;;;3.03;1.13;;;7.60;1.00;;;;;;4946363;28;20308;-76
2022/04/08 03:12:52;;;;;;;2.10;1.00;;;7.60;1.00;;;;;;4932447;28;20280;-78
2022/04/08 03:15:19;;;;;;;2.38;1.55;;;7.70;1.00;;;;;;4945002;28;20244;-76
2022/04/08 03:17:49;;;;;;;3.88;1.42;;;7.70;1.00;;;;;;4935981;28;20255;-77
2022/04/08 03:20:16;;;;;;;3.97;1.38;;;7.60;1.00;;;;;;4932171;28;20291;-74
2022/04/08 03:22:42;;;;;;;2.20;1.02;;;7.60;1.00;;;;;;4937035;28;20735;-75
2022/04/08 03:25:09;;;;;;;3.25;1.08;;;7.60;1.00;;;;;;4938965;28;20273;-77
2022/04/08 03:27:38;;;;;;;4.45;1.52;;;7.60;1.00;;;;;;4945297;28;20237;-76
2022/04/08 03:30:06;;;;;;;5.20;1.40;;;7.60;1.00;;;;;;4947252;28;20304;-76
2022/04/08 03:32:37;;;;;;;3.38;1.10;;;7.70;1.00;;;;;;4934495;28;20301;-76
2022/04/08 03:35:05;;;;;;;2.80;1.30;;;7.70;1.00;;;;;;4937910;28;20324;-77
2022/04/08 03:37:32;;;;;;;2.55;1.20;;;7.70;1.00;;;;;;4941559;28;20229;-76
2022/04/08 03:40:00;;;;;;;2.40;1.13;;;7.70;1.00;;;;;;4931702;28;20326;-75
2022/04/08 03:42:32;;;;;;;2.28;0.90;;;7.70;1.00;;;;;;4937243;28;20233;-76
2022/04/08 03:45:01;;;;;;;3.00;1.30;;;7.70;1.00;;;;;;4935231;28;20777;-75
2022/04/08 03:47:27;;;;;;;3.25;1.25;;;7.60;1.00;;;;;;4930922;28;20896;-76
2022/04/08 03:49:54;;;;;;;1.90;1.00;;;7.70;1.00;;;;;;4928915;28;20437;-76
2022/04/08 03:52:29;;;;;;;2.40;1.30;;;7.60;1.00;;;;;;4926803;28;20238;-76
2022/04/08 03:54:56;;;;;;;2.15;0.90;;;7.50;1.00;;;;;;4943063;28;20248;-76
2022/04/08 03:57:27;;;;;;;2.60;1.13;;;7.30;1.00;;;;;;4926040;28;20237;-76
2022/04/08 03:59:55;;;;;;;2.65;1.50;;;7.20;1.00;;;;;;4928029;28;20252;-76
2022/04/08 04:02:24;;;;;;;4.78;1.20;;;7.00;1.00;;;;;;4914933;28;20255;-77
2022/04/08 04:04:55;;;;;;;3.22;1.40;;;7.00;1.00;;;;;;4922582;28;20339;-77
2022/04/08 04:07:22;;;;;;;1.85;1.20;;;6.90;1.00;;;;;;4934900;28;20232;-77
2022/04/08 04:09:48;;;;;;;2.88;1.70;;;6.80;1.00;;;;;;4936053;28;20290;-77
2022/04/08 04:12:17;;;;;;;2.90;1.60;;;6.70;1.00;;;;;;4931913;28;20241;-76
2022/04/08 04:14:44;;;;;;;4.10;1.50;;;6.70;1.00;;;;;;4936224;28;20269;-76
2022/04/08 04:17:10;;;;;;;2.72;1.25;;;6.60;1.00;;;;;;4940363;28;20249;-76
2022/04/08 04:19:39;;;;;;;1.88;1.20;;;6.60;1.00;;;;;;4941211;28;20253;-76
2022/04/08 04:22:07;;;;;;;3.25;0.90;;;6.50;1.00;;;;;;4928095;23;20333;-76
2022/04/08 04:24:34;;;;;;;2.78;0.90;;;6.50;1.00;;;;;;4888024;28;20420;-75
2022/04/08 04:27:00;;;;;;;4.50;1.27;;;6.50;1.00;;;;;;4887115;28;20327;-76
2022/04/08 04:29:27;;;;;;;2.20;1.00;;;6.40;1.00;;;;;;4877896;29;20290;-75
2022/04/08 04:31:55;;;;;;;3.40;1.10;;;6.50;1.00;;;;;;4901770;28;21113;-76
2022/04/08 04:34:27;;;;;;;1.95;0.90;;;6.40;1.00;;;;;;4928597;28;21110;-76
2022/04/08 04:36:55;;;;;;;2.50;1.30;;;6.40;1.00;;;;;;4914601;28;20253;-75
2022/04/08 04:39:26;;;;;;;2.50;1.00;;;6.40;1.00;;;;;;4909441;28;21671;-76
2022/04/08 04:41:53;;;;;;;1.80;0.80;;;6.40;1.00;;;;;;4918003;28;20241;-77
2022/04/08 04:44:19;;;;;;;2.25;1.00;;;6.40;1.00;;;;;;4903400;28;20309;-76
2022/04/08 04:46:47;;;;;;;1.48;0.85;;;6.30;1.00;;;;;;4865363;28;20246;-76
2022/04/08 04:49:14;;;;;;;3.42;1.30;;;6.40;1.00;;;;;;4912414;28;20300;-76
2022/04/08 04:51:41;;;;;;;3.42;1.10;;;6.40;1.00;;;;;;4896486;28;20252;-75
2022/04/08 04:54:09;;;;;;;2.75;1.40;;;6.30;1.00;;;;;;4918867;28;20264;-77
2022/04/08 04:56:35;;;;;;;2.80;1.45;;;6.20;1.00;;;;;;4908352;28;20344;-76
2022/04/08 04:59:06;;;;;;;2.05;1.00;;;6.20;1.00;;;;;;4908811;28;20356;-76
2022/04/08 05:01:33;;;;;;;2.42;1.00;;;6.20;1.00;;;;;;4913362;28;20267;-76
2022/04/08 05:03:59;;;;;;;7.97;1.90;;;6.20;1.00;;;;;;4914085;28;20448;-77
2022/04/08 05:06:26;;;;;;;2.33;0.90;;;6.20;1.00;;;;;;4905874;28;20264;-77
2022/04/08 05:08:57;;;;;;;2.28;1.15;;;6.10;1.00;;;;;;4917240;28;20364;-76
2022/04/08 05:11:28;;;;;;;3.15;1.10;;;6.10;1.00;;;;;;4916894;28;20253;-76
2022/04/08 05:13:57;;;;;;;4.00;1.90;;;6.10;1.00;;;;;;4909319;28;20226;-75
2022/04/08 05:16:24;;;;;;;8.93;1.63;;;6.10;1.00;;;;;;4912928;28;20300;-77
2022/04/08 05:18:51;;;;;;;3.17;1.30;;;6.20;1.00;;;;;;4900605;28;20312;-76
2022/04/08 05:21:18;;;;;;;4.72;1.77;;;6.20;1.00;;;;;;4918950;28;20242;-76
2022/04/08 05:23:44;;;;;;;3.40;1.75;;;6.20;1.00;;;;;;4926454;28;20241;-76
2022/04/08 05:26:12;;;;;;;2.00;1.35;;;6.20;1.00;;;;;;4914509;28;20325;-77
2022/04/08 05:28:40;;;;;;;3.95;1.52;;;6.10;1.00;;;;;;4914192;28;22147;-76
2022/04/08 05:31:07;;;;;;;3.65;1.20;;;6.20;1.00;;;;;;4906905;28;21055;-76
2022/04/08 05:33:40;;;;;;;3.55;1.20;;;6.20;1.00;;;;;;4921576;28;20233;-77
2022/04/08 05:36:06;;;;;;;2.20;1.20;;;6.20;1.00;;;;;;4903013;28;20779;-76
2022/04/08 05:38:33;;;;;;;2.70;1.65;;;6.20;1.00;;;;;;4912321;28;22265;-76
2022/04/08 05:41:00;;;;;;;4.93;1.75;;;6.20;1.00;;;;;;4914890;28;20253;-76
2022/04/08 05:43:27;;;;;;;2.90;1.83;;;6.20;1.00;;;;;;4916927;28;20244;-76
2022/04/08 05:45:55;;;;;;;2.65;1.70;;;6.30;1.00;;;;;;4891264;28;20260;-76
2022/04/08 05:48:24;;;;;;;4.55;1.30;;;6.30;1.00;;;;;;4898667;28;20282;-77
2022/04/08 05:50:51;;;;;;;3.65;1.40;;;6.30;1.00;;;;;;4891485;29;20475;-76
2022/04/08 05:53:18;;;;;;;3.97;1.52;;;6.30;1.00;;;;;;4880039;29;20278;-75
2022/04/08 05:55:45;;;;;;;3.67;1.65;;;6.30;1.00;;;;;;4915410;28;20308;-75
2022/04/08 05:58:12;;;;;;;3.47;2.00;;;6.30;1.00;;;;;;4918647;28;20305;-76
2022/04/08 06:00:38;;;;;;;2.33;1.30;;;6.30;1.00;;;;;;4927522;28;20317;-75
2022/04/08 06:03:09;;;;;;;2.83;1.55;;;6.30;1.00;;;;;;4919439;28;20302;-76
2022/04/08 06:05:36;;;;;;;5.65;1.10;;;6.30;1.00;;;;;;4910716;28;20312;-76
2022/04/08 06:08:04;;;;;;;3.88;1.45;;;6.30;1.00;;;;;;4911991;28;20249;-75
2022/04/08 06:10:36;;;;;;;5.63;1.80;;;6.30;1.00;;;;;;4922982;28;20794;-75
2022/04/08 06:13:04;;;;;;;2.88;1.35;;;6.40;1.00;;;;;;4919174;28;20247;-76
2022/04/08 06:15:34;;;;;;;4.90;1.70;;;6.40;1.00;;;;;;4906366;28;20328;-75
2022/04/08 06:18:04;;;;;;;4.63;1.85;;;6.50;1.00;;;;;;4912875;28;20245;-76
2022/04/08 06:20:36;;;;;;;8.45;1.70;;;6.50;1.00;;;;;;4915329;28;20265;-75
2022/04/08 06:23:03;;;;;;;4.72;1.10;;;6.60;1.00;;;;;;4929530;28;20241;-76
2022/04/08 06:25:30;;;;;;;5.18;1.75;;;6.60;1.00;;;;;;4942709;28;20340;-76
2022/04/08 06:28:00;;;;;;;4.55;1.65;;;6.60;1.00;;;;;;4942948;28;20232;-76
2022/04/08 06:30:27;;;;;;;3.90;1.60;;;6.70;1.00;;;;;;4940481;28;20299;-76
2022/04/08 06:32:56;;;;;;;4.82;2.75;;;6.80;1.00;;;;;;4930047;28;20245;-76
2022/04/08 06:35:25;;;;;;;3.13;1.77;;;6.90;1.00;;;;;;4944021;28;20236;-76
2022/04/08 06:37:59;;;;;;;4.32;1.65;;;7.00;1.00;;;;;;4922190;28;20265;-76
2022/04/08 06:40:25;;;;;;;2.72;1.40;;;7.00;1.00;;;;;;4927288;28;20252;-76
2022/04/08 06:42:59;;;;;;;2.75;1.50;;;7.10;1.00;;;;;;4935165;28;20242;-76
2022/04/08 06:45:27;;;;;;;3.10;1.63;;;7.10;1.00;;;;;;4934601;28;21720;-76
2022/04/08 06:47:54;;;;;;;3.33;1.40;;;7.20;1.00;;;;;;4916939;28;20281;-76
2022/04/08 06:50:21;;;;;;;4.88;2.17;;;7.50;1.00;;;;;;4916988;28;20298;-76
2022/04/08 06:52:48;;;;;;;2.50;1.40;;;7.70;1.00;;;;;;4904368;28;20271;-74
2022/04/08 06:55:16;;;;;;;3.50;1.60;;;7.50;1.00;;;;;;4907996;28;20381;-74
2022/04/08 06:57:50;;;;;;;3.65;1.42;;;6.70;1.00;;;;;;4885849;28;20246;-74
2022/04/08 07:00:17;;;;;;;4.97;2.50;;;6.10;1.00;;;;;;4907016;28;20293;-75
2022/04/08 07:02:45;;;;;;;2.08;0.82;;;5.60;1.00;;;;;;4904757;28;20419;-80
2022/04/08 07:05:11;;;;;;;3.25;1.42;;;5.20;1.00;;;;;;4919149;28;20697;-77
2022/04/08 07:07:39;;;;;;;5.32;1.73;;;5.00;1.00;;;;;;4886699;28;20364;-77
2022/04/08 07:10:09;;;;;;;3.13;1.30;;;4.70;1.00;;;;;;4921723;28;20244;-78
2022/04/08 07:12:39;;;;;;;3.67;1.90;;;4.60;1.00;;;;;;4930199;28;21079;-77
2022/04/08 07:15:07;;;;;;;4.15;1.63;;;4.30;1.00;;;;;;4910715;28;20269;-76
2022/04/08 07:17:35;;;;;;;3.45;1.50;;;4.20;1.00;;;;;;4905636;28;20867;-77
2022/04/08 07:20:04;;;;;;;3.20;1.60;;;4.10;1.00;;;;;;4912112;28;20245;-77
2022/04/08 07:22:36;;;;;;;4.00;1.40;;;4.10;1.00;;;;;;4930482;28;20293;-76
2022/04/08 07:25:04;;;;;;;5.43;1.50;;;4.00;1.00;;;;;;4937677;28;20250;-77
2022/04/08 07:27:31;;;;;;;5.18;1.55;;;4.10;1.00;;;;;;4927765;28;20242;-76
2022/04/08 07:30:01;;;;;;;2.40;1.30;;;4.20;1.00;;;;;;4912651;28;20235;-77
2022/04/08 07:32:28;;;;;;;4.03;1.73;;;4.30;1.00;;;;;;4929355;28;20250;-77
2022/04/08 07:34:57;;;;;;;3.22;2.05;;;4.40;1.00;;;;;;4923312;28;20289;-77
2022/04/08 07:37:31;;;;;;;10.75;2.85;;;4.50;1.00;;;;;;4917230;28;20245;-76
2022/04/08 07:39:58;;;;;;;4.65;2.05;;;4.80;1.00;;;;;;4921625;28;20298;-75
2022/04/08 07:42:25;;;;;;;4.32;2.42;;;5.00;1.00;;;;;;4919133;28;20352;-76
2022/04/08 07:44:56;;;;;;;7.90;2.25;;;5.20;1.00;;;;;;4919144;28;20296;-76
2022/04/08 07:47:27;;;;;;;5.00;1.55;;;5.40;1.00;;;;;;4933437;28;20335;-75
2022/04/08 07:49:56;;;;;;;8.25;2.67;;;5.50;1.00;;;;;;4907115;28;20380;-75
2022/04/08 07:52:28;;;;;;;5.20;1.90;;;5.60;1.00;;;;;;4913629;28;20265;-75
2022/04/08 07:54:56;;;;;;;4.68;2.05;;;5.70;1.00;;;;;;4909287;28;20341;-75
2022/04/08 07:57:28;;;;;;;4.30;1.92;;;5.70;1.00;;;;;;4902120;28;20245;-74
2022/04/08 07:59:54;;;;;;;3.35;1.90;;;5.70;1.00;;;;;;4913978;28;20246;-76
2022/04/08 08:02:21;;;;;;;5.72;1.80;;;5.60;1.00;;;;;;4921020;28;20340;-75
2022/04/08 08:04:50;;;;;;;5.93;2.35;;;5.60;1.00;;;;;;4923500;28;20289;-75
2022/04/08 08:07:16;;;;;;;8.55;2.55;;;5.80;1.00;;;;;;4931073;28;20252;-77
2022/04/08 08:09:48;;;;;;;5.95;2.10;;;5.90;1.00;;;;;;4911167;28;20334;-77
2022/04/08 08:12:18;;;;;;;4.75;2.58;;;6.10;1.00;;;;;;4927184;28;20225;-78
2022/04/08 08:14:44;;;;;;;4.10;2.03;;;6.30;1.00;;;;;;4922374;28;20269;-75
2022/04/08 08:17:11;;;;;;;8.75;2.40;;;6.40;1.00;;;;;;4924812;28;20336;-76
2022/04/08 08:19:38;;;;;;;3.55;1.90;;;6.60;1.00;;;;;;4925223;28;21050;-76
2022/04/08 08:22:10;;;;;;;5.25;2.10;;;6.70;1.00;;;;;;4925909;28;20265;-76
2022/04/08 08:24:36;;;;;;;4.95;1.98;;;6.80;1.00;;;;;;4924704;28;20804;-76
2022/04/08 08:27:05;;;;;;;3.80;1.92;;;6.90;1.00;;;;;;4928621;28;21111;-76
2022/04/08 08:29:37;;;;;;;4.30;1.50;;;7.10;1.00;;;;;;4923918;28;21447;-75
2022/04/08 08:32:04;;;;;;;6.05;1.80;;;7.40;1.00;;;;;;4927906;28;20317;-76
2022/04/08 08:34:31;;;;;;;3.92;1.75;;;7.70;1.00;;;;;;4928273;28;20310;-75
2022/04/08 08:36:59;;;;;;;12.45;2.78;;;7.80;1.00;;;;;;4918901;28;20309;-76
2022/04/08 08:39:28;;;;;;;8.32;2.78;;;7.90;1.00;;;;;;4925448;28;20237;-77
2022/04/08 08:41:58;;;;;;;5.85;1.67;;;7.90;1.00;;;;;;4925180;28;20487;-75
2022/04/08 08:44:25;;;;;;;6.65;1.95;;;7.90;1.00;;;;;;4935756;28;20931;-76
2022/04/08 08:46:54;;;;;;;10.23;2.90;;;8.20;1.00;;;;;;4924842;28;20746;-76
2022/04/08 08:49:26;;;;;;;5.10;2.00;;;8.60;1.00;;;;;;4924557;28;20242;-77
2022/04/08 08:51:58;;;;;;;8.93;4.80;;;8.90;1.00;;;;;;4942447;28;20352;-77
2022/04/08 08:54:26;;;;;;;5.65;2.60;;;9.10;1.00;;;;;;4938085;28;20224;-77
2022/04/08 08:56:53;;;;;;;6.27;2.00;;;9.20;1.00;;;;;;4933278;28;20265;-75
2022/04/08 08:59:19;;;;;;;6.47;2.10;;;9.30;1.00;;;;;;4923022;28;20530;-76
2022/04/08 09:01:49;;;;;;;4.25;1.90;;;9.30;1.00;;;;;;4924401;28;20449;-77
2022/04/08 09:04:15;;;;;;;5.15;1.60;;;9.20;1.00;;;;;;4923627;28;20364;-75
2022/04/08 09:06:42;;;;;;;3.33;1.55;;;9.00;1.00;;;;;;4923948;28;20265;-77
2022/04/08 09:09:11;;;;;;;6.43;2.10;;;8.90;1.00;;;;;;4921277;28;20301;-77
2022/04/08 09:11:39;;;;;;;5.05;1.65;;;8.80;1.00;;;;;;4918200;28;21183;-77
2022/04/08 09:14:06;;;;;;;3.78;1.60;;;9.10;1.00;;;;;;4916309;28;20245;-77
2022/04/08 09:16:37;;;;;;;3.95;1.95;;;9.40;1.00;;;;;;4918633;28;20418;-77
2022/04/08 09:19:10;;;;;;;5.00;1.55;;;9.60;1.00;;;;;;4915396;28;20241;-78
2022/04/08 09:21:39;;;;;;;4.43;1.70;;;9.70;1.00;;;;;;4915107;28;20226;-78
2022/04/08 09:24:07;;;;;;;6.57;1.52;;;9.40;1.00;;;;;;4915346;28;20520;-79
2022/04/08 09:26:38;;;;;;;5.43;1.75;;;9.20;1.00;;;;;;4923796;28;20245;-77
2022/04/08 09:29:14;;;;;;;4.43;1.35;;;9.20;1.00;;;;;;4924548;28;20294;-76
2022/04/08 09:31:41;;;;;;;6.30;1.85;;;9.10;1.00;;;;;;4921509;28;20301;-77
2022/04/08 09:34:14;;;;;;;6.30;1.80;;;9.00;1.00;;;;;;4922616;28;20234;-78
2022/04/08 09:36:42;;;;;;;5.60;1.70;;;9.40;1.00;;;;;;4936632;28;20230;-78
2022/04/08 09:39:10;;;;;;;3.70;1.20;;;10.90;1.00;;;;;;4924449;28;20430;-78
2022/04/08 09:41:42;;;;;;;4.87;1.40;;;11.80;1.00;;;;;;4925153;28;20478;-78
2022/04/08 09:44:10;;;;;;;4.47;1.35;;;11.40;1.00;;;;;;4929907;28;20593;-77
2022/04/08 09:46:40;;;;;;;6.13;1.30;;;11.00;1.00;;;;;;4940122;28;20300;-77
2022/04/08 09:49:09;;;;;;;7.80;1.80;;;10.60;1.00;;;;;;4954526;28;20425;-78
2022/04/08 09:51:37;;;;;;;4.47;1.83;;;10.30;1.00;;;;;;4944825;28;20448;-78
2022/04/08 09:54:12;;;;;;;4.78;1.70;;;10.00;1.00;;;;;;4953840;28;20489;-77
2022/04/08 09:56:45;;;;;;;4.03;1.53;;;10.10;1.00;;;;;;4946674;28;20348;-78
2022/04/08 09:59:12;;;;;;;3.63;1.43;;;11.40;1.00;;;;;;4938662;28;20473;-77
2022/04/08 10:01:40;;;;;;;2.23;1.30;;;11.70;1.00;;;;;;4940623;28;20501;-77
2022/04/08 10:04:08;;;;;;;5.70;1.63;;;11.20;1.00;;;;;;4944288;28;20499;-78
2022/04/08 10:06:40;;;;;;;3.67;1.33;;;10.70;1.00;;;;;;4946100;28;20423;-79
2022/04/08 10:09:10;;;;;;;2.60;1.40;;;10.30;1.00;;;;;;4951663;28;21452;-78
2022/04/08 10:11:46;;;;;;;5.77;1.50;;;10.50;1.00;;;;;;4948163;28;20429;-78
2022/04/08 10:14:29;;;;;;;3.85;1.42;;;10.40;1.00;;;;;;4951904;28;20439;-79
2022/04/08 10:16:59;;;;;;;6.07;1.40;;;10.70;1.00;;;;;;4932039;28;20308;-80
2022/04/08 10:19:26;;;;;;;3.00;1.20;;;13.20;1.00;;;;;;4937366;28;20524;-79
2022/04/08 10:21:59;;;;;;;5.47;1.57;;;14.50;1.00;;;;;;4937862;28;20492;-79
2022/04/08 10:24:28;;;;;;;4.10;1.30;;;15.20;1.00;;;;;;4949297;28;20461;-77
2022/04/08 10:27:05;;;;;;;5.10;1.60;;;14.50;1.00;;;;;;4945353;28;20520;-77
2022/04/08 10:29:33;;;;;;;3.10;1.30;;;12.90;1.00;;;;;;4942835;28;20457;-78
2022/04/08 10:32:02;;;;;;;3.27;1.50;;;11.70;1.00;;;;;;4939636;28;22160;-78
2022/04/08 10:34:32;;;;;;;3.60;1.57;;;11.10;1.00;;;;;;4929265;28;20519;-78
2022/04/08 10:37:00;;;;;;;3.37;1.10;;;10.70;1.00;;;;;;4939464;28;20425;-78
2022/04/08 10:39:27;;;;;;;5.70;2.37;;;11.40;1.00;;;;;;4945950;28;20476;-77
2022/04/08 10:41:59;;;;;;;4.13;1.83;;;12.90;1.00;;;;;;4944258;28;20488;-77
2022/04/08 10:44:41;;;;;;;5.67;1.70;;;13.80;1.00;;;;;;4936492;28;20870;-76
2022/04/08 10:47:12;;;;;;;2.60;1.20;;;14.70;1.00;;;;;;4935156;28;20603;-78
2022/04/08 10:49:50;;;;;;;2.77;1.40;;;15.60;1.00;;;;;;4942834;28;20635;-77
2022/04/08 10:52:23;;;;;;;2.07;0.93;;;15.60;1.00;;;;;;4939438;28;20452;-78
2022/04/08 10:54:51;;;;;;;3.70;1.33;;;15.00;1.00;;;;;;4922499;28;20458;-77
2022/04/08 10:57:33;;;;;;;2.57;1.60;;;14.60;1.00;;;;;;4916315;28;20502;-77
2022/04/08 11:00:03;;;;;;;3.60;1.27;;;13.70;1.00;;;;;;4910967;28;20479;-78
2022/04/08 11:02:38;;;;;;;4.43;1.40;;;13.10;1.00;;;;;;4928626;28;20469;-78
2022/04/08 11:05:07;;;;;;;3.67;1.20;;;12.80;1.00;;;;;;4920851;28;20465;-77
2022/04/08 11:07:35;;;;;;;2.83;1.27;;;12.30;1.00;;;;;;4925955;28;20645;-78
2022/04/08 11:10:03;;;;;;;2.87;1.50;;;11.80;1.00;;;;;;4938797;28;20647;-77
2022/04/08 11:12:31;;;;;;;3.40;1.30;;;11.30;1.00;;;;;;4948209;28;20481;-77
2022/04/08 11:15:02;;;;;;;3.97;1.85;;;10.80;1.00;;;;;;4949823;28;20505;-78
2022/04/08 11:17:38;;;;;;;3.30;1.60;;;10.70;1.00;;;;;;4943110;28;20289;-78
2022/04/08 11:20:06;;;;;;;3.87;1.37;;;11.20;1.00;;;;;;4952181;28;20512;-78
2022/04/08 11:22:40;;;;;;;2.73;1.30;;;11.70;1.00;;;;;;4946711;28;20545;-78
2022/04/08 11:25:12;;;;;;;3.63;1.50;;;11.80;1.00;;;;;;4948280;28;21123;-78
2022/04/08 11:27:40;;;;;;;8.40;2.67;;;12.10;1.00;;;;;;4945799;28;20452;-79
2022/04/08 11:30:12;;;;;;;6.57;1.80;;;12.50;1.00;;;;;;4946297;28;20656;-78
2022/04/08 11:32:40;;;;;;;7.73;1.40;;;12.20;1.00;;;;;;4947326;28;20441;-78
2022/04/08 11:35:13;;;;;;;2.70;1.23;;;11.80;1.00;;;;;;4933127;28;20458;-78
2022/04/08 11:37:40;;;;;;;3.13;1.80;;;11.60;1.00;;;;;;4931283;28;20430;-77
2022/04/08 11:40:18;;;;;;;4.90;2.00;;;11.30;1.00;;;;;;4940291;28;20430;-77
2022/04/08 11:42:50;;;;;;;5.23;1.30;;;11.60;1.00;;;;;;4933182;28;20450;-77
2022/04/08 11:45:19;;;;;;;4.93;2.10;;;12.30;1.00;;;;;;4929668;28;20488;-77
2022/04/08 11:47:47;;;;;;;5.00;1.70;;;13.40;1.00;;;;;;4924381;28;20456;-78
2022/04/08 11:50:14;;;;;;;3.93;1.67;;;15.10;1.00;;;;;;4928477;28;20481;-79
2022/04/08 11:52:53;;;;;;;4.13;1.47;;;16.80;1.00;;;;;;4927488;28;20494;-78
2022/04/08 11:55:31;;;;;;;3.83;1.80;;;18.40;1.00;;;;;;4931766;28;20480;-80
2022/04/08 11:57:58;;;;;;;2.60;1.30;;;19.10;1.00;;;;;;4935146;28;20572;-80
2022/04/08 12:00:30;;;;;;;3.20;1.60;;;17.70;1.00;;;;;;4948243;28;20475;-78
2022/04/08 12:02:58;;;;;;;2.57;1.40;;;16.20;1.00;;;;;;4952426;28;20483;-77
2022/04/08 12:05:30;;;;;;;3.90;1.90;;;14.60;1.00;;;;;;4948030;28;20573;-79
2022/04/08 12:08:00;;;;;;;5.60;2.27;;;13.60;1.00;;;;;;4952001;28;20473;-78
2022/04/08 12:10:28;;;;;;;4.17;1.43;;;12.50;1.00;;;;;;4945131;28;20429;-78
2022/04/08 12:12:55;;;;;;;3.20;1.63;;;11.70;1.00;;;;;;4938296;28;20457;-78
2022/04/08 12:15:22;;;;;;;4.28;1.70;;;11.10;1.00;;;;;;4949196;28;20449;-79
2022/04/08 12:17:52;;;;;;;3.40;1.63;;;10.60;1.00;;;;;;4943759;28;20322;-79
2022/04/08 12:20:20;;;;;;;4.40;1.90;;;10.70;1.00;;;;;;4940284;28;20587;-78
2022/04/08 12:22:51;;;;;;;4.07;1.30;;;11.10;1.00;;;;;;4940267;28;20425;-78
2022/04/08 12:25:18;;;;;;;4.03;2.47;;;11.50;1.00;;;;;;4947828;28;20469;-78
2022/04/08 12:27:53;;;;;;;6.10;1.70;;;11.90;1.00;;;;;;4941935;28;20476;-77
2022/04/08 12:30:31;;;;;;;3.83;1.90;;;11.90;1.00;;;;;;4942434;28;20471;-77
2022/04/08 12:32:58;;;;;;;3.70;1.80;;;11.60;1.00;;;;;;4938353;28;20445;-78
2022/04/08 12:35:29;;;;;;;4.67;1.53;;;11.30;1.00;;;;;;4923937;28;20564;-78
2022/04/08 12:37:59;;;;;;;4.60;2.20;;;11.20;1.00;;;;;;4928602;28;21013;-78
2022/04/08 12:40:30;;;;;;;6.33;1.83;;;11.20;1.00;;;;;;4923841;28;20426;-78
2022/04/08 12:42:56;;;;;;;4.40;1.60;;;11.40;1.00;;;;;;4933676;28;21795;-79
2022/04/08 12:45:23;;;;;;;4.40;1.70;;;11.30;1.00;;;;;;4934560;28;20485;-77
2022/04/08 12:47:51;;;;;;;3.60;1.73;;;11.70;1.00;;;;;;4942370;28;21166;-77
2022/04/08 12:50:21;;;;;;;3.97;2.10;;;12.40;1.00;;;;;;4936691;28;20432;-78
2022/04/08 12:52:49;;;;;;;4.90;1.80;;;12.80;1.00;;;;;;4937337;28;20528;-77
2022/04/08 12:55:20;;;;;;;4.00;1.90;;;12.90;1.00;;;;;;4935152;28;20473;-78
2022/04/08 12:57:49;;;;;;;5.13;1.57;;;12.50;1.00;;;;;;4924360;28;20494;-78
2022/04/08 13:00:17;;;;;;;4.83;1.50;;;12.10;1.00;;;;;;4937919;28;20472;-78
2022/04/08 13:02:45;;;;;;;6.00;2.10;;;11.70;1.00;;;;;;4945770;28;20485;-78
2022/04/08 13:05:13;;;;;;;4.80;1.67;;;11.30;1.00;;;;;;4939638;28;20473;-79
2022/04/08 13:07:41;;;;;;;3.20;1.90;;;11.20;1.00;;;;;;4935796;28;20461;-77
2022/04/08 13:10:10;;;;;;;3.90;2.70;;;10.90;1.00;;;;;;4935737;28;20465;-77
2022/04/08 13:12:37;;;;;;;4.13;2.40;;;10.90;1.00;;;;;;4945131;28;20506;-77